Time;durP1;ratioP1;P1;durP2;ratioP2;P2;SDS_P1;SDS_P2;PMS_P1;PMS_P2;Temp;Humidity;BMP_temperature;BMP_pressure;BME280_temperature;BME280_humidity;BME280_pressure;Samples;Min_cycle;Max_cycle;Signal;HPM_P1;HPM_P2
2022/01/20 00:01:59;;;;;;;;;19.75;19.25;;;;;-7.27;81.19;101848.03;5137555;27;8855;-69
2022/01/20 00:27:18;;;;;;;;;26.75;26.50;;;;;-7.53;81.89;101821.56;5135189;27;8827;-70
2022/01/20 00:33:34;;;;;;;;;20.75;20.75;;;;;-7.52;81.55;101809.81;5136463;27;8932;-69
2022/01/20 00:39:04;;;;;;;;;17.75;14.00;;;;;-7.71;82.05;101802.31;5136282;27;8828;-70
2022/01/20 00:41:32;;;;;;;;;16.25;15.50;;;;;-7.73;82.57;101807.03;5137595;27;8850;-70
2022/01/20 00:44:28;;;;;;;;;12.00;12.00;;;;;-7.59;82.22;101808.88;5130430;27;8910;-70
2022/01/20 00:47:24;;;;;;;;;10.25;7.00;;;;;-7.71;82.73;101797.75;5115831;28;9562;-70
2022/01/20 00:50:19;;;;;;;;;15.75;15.75;;;;;-7.61;82.12;101790.25;5115602;28;8984;-70
2022/01/20 00:53:15;;;;;;;;;16.25;13.75;;;;;-7.68;81.84;101800.06;5114689;28;8825;-70
2022/01/20 00:56:13;;;;;;;;;18.50;15.50;;;;;-7.80;82.79;101798.03;5135433;27;8873;-70
2022/01/20 00:59:08;;;;;;;;;21.75;21.75;;;;;-7.82;82.42;101797.34;5135940;27;8843;-69
2022/01/20 01:02:08;;;;;;;;;15.50;14.00;;;;;-7.71;82.31;101799.63;5135335;27;9568;-69
2022/01/20 01:04:37;;;;;;;;;18.75;18.75;;;;;-7.73;82.44;101802.50;5135628;27;8839;-69
2022/01/20 01:10:08;;;;;;;;;10.00;9.00;;;;;-7.81;81.42;101809.78;5134513;27;8953;-70
2022/01/20 01:13:10;;;;;;;;;21.75;21.00;;;;;-7.85;81.98;101795.88;5135819;27;8819;-69
2022/01/20 01:16:09;;;;;;;;;12.50;12.50;;;;;-7.74;82.12;101799.97;5118889;27;8939;-69
2022/01/20 01:22:04;;;;;;;;;11.75;10.50;;;;;-8.05;83.11;101806.31;5114953;28;8829;-70
2022/01/20 01:25:01;;;;;;;;;12.25;11.50;;;;;-8.23;83.98;101795.88;5122938;27;9610;-70
2022/01/20 01:27:59;;;;;;;;;18.00;18.00;;;;;-8.13;84.56;101796.50;5135463;27;9612;-70
2022/01/20 01:31:19;;;;;;;;;20.50;19.50;;;;;-8.04;84.48;101793.72;5136398;27;8815;-70
2022/01/20 01:33:25;;;;;;;;;1.50;0.00;;;;;-8.10;83.58;101795.28;5118626;27;8843;-70
2022/01/20 01:36:22;;;;;;;;;21.25;19.50;;;;;-7.87;83.75;101800.59;5119921;27;8849;-70
2022/01/20 01:39:18;;;;;;;;;19.50;19.50;;;;;-8.01;83.23;101791.50;5135167;27;8831;-70
2022/01/20 01:42:20;;;;;;;;;20.00;20.00;;;;;-7.96;82.99;101790.97;5135196;27;8923;-70
2022/01/20 01:45:17;;;;;;;;;14.25;14.25;;;;;-7.97;82.76;101781.25;5131341;27;8834;-70
2022/01/20 01:47:46;;;;;;;;;18.75;18.25;;;;;-8.03;83.00;101780.13;5134630;27;8859;-71
2022/01/20 01:50:29;;;;;;;;;15.00;15.00;;;;;-8.02;82.61;101780.94;5135667;27;8959;-70
2022/01/20 01:53:02;;;;;;;;;8.50;8.50;;;;;-8.02;82.34;101779.09;5128052;27;8851;-71
2022/01/20 01:55:57;;;;;;;;;21.00;21.00;;;;;-8.02;82.62;101768.34;5118498;27;8838;-70
2022/01/20 01:58:54;;;;;;;;;13.00;13.00;;;;;-8.06;82.99;101752.78;5114409;28;8821;-70
2022/01/20 02:01:22;;;;;;;;;17.00;15.75;;;;;-8.04;83.04;101748.91;5115337;28;8894;-70
2022/01/20 02:04:20;;;;;;;;;16.00;16.00;;;;;-8.09;82.72;101747.78;5100464;28;8849;-70
2022/01/20 02:20:05;;;;;;;;;18.75;16.50;;;;;-7.94;81.59;101751.34;5051866;28;8855;-71
2022/01/20 02:22:32;;;;;;;;;16.75;12.75;;;;;-7.74;81.46;101751.63;5103987;28;8877;-71
2022/01/20 02:25:31;;;;;;;;;16.00;15.75;;;;;-7.67;80.93;101752.53;5115058;27;8814;-71
2022/01/20 02:28:27;;;;;;;;;19.50;17.00;;;;;-7.72;81.92;101752.28;5113799;28;8818;-71
2022/01/20 02:31:13;;;;;;;;;14.50;14.50;;;;;-7.85;81.07;101756.44;5114854;28;8901;-70
2022/01/20 02:34:11;;;;;;;;;15.75;15.25;;;;;-8.02;80.94;101760.31;5100888;28;8825;-70
2022/01/20 02:36:43;;;;;;;;;18.00;17.50;;;;;-7.92;81.30;101763.56;5128110;27;8949;-70
2022/01/20 02:45:20;;;;;;;;;15.00;15.00;;;;;-8.10;81.14;101779.19;5130277;27;9562;-70
2022/01/20 02:47:50;;;;;;;;;18.75;16.00;;;;;-7.82;81.19;101782.09;5114598;28;8841;-70
2022/01/20 02:50:46;;;;;;;;;12.00;12.00;;;;;-7.93;80.96;101775.31;5113292;28;8841;-69
2022/01/20 02:53:43;;;;;;;;;12.00;9.75;;;;;-8.17;81.00;101775.53;5113317;28;8940;-69
2022/01/20 02:56:28;;;;;;;;;8.50;7.25;;;;;-8.15;81.18;101774.34;5127282;27;8938;-69
2022/01/20 02:59:10;;;;;;;;;18.00;18.00;;;;;-8.10;80.56;101762.22;5133987;27;8843;-69
2022/01/20 03:02:08;;;;;;;;;27.25;27.25;;;;;-8.06;81.40;101755.47;5134628;27;8853;-68
2022/01/20 03:04:38;;;;;;;;;32.00;32.00;;;;;-8.17;81.17;101749.53;5116986;27;8835;-69
2022/01/20 03:07:34;;;;;;;;;83.00;65.75;;;;;-8.18;81.57;101761.28;5131375;27;8910;-69
2022/01/20 03:10:30;;;;;;;;;82.00;58.75;;;;;-8.24;81.31;101751.28;5133305;27;9584;-70
2022/01/20 03:13:25;;;;;;;;;95.75;72.25;;;;;-8.27;81.06;101750.81;5133339;27;8861;-69
2022/01/20 03:16:21;;;;;;;;;87.25;69.00;;;;;-8.34;81.72;101749.88;5124524;27;8843;-70
2022/01/20 03:19:17;;;;;;;;;87.00;72.00;;;;;-8.43;81.74;101743.78;5132520;27;9649;-70
2022/01/20 03:22:13;;;;;;;;;78.00;60.50;;;;;-8.38;81.57;101741.38;5119065;27;8823;-69
2022/01/20 03:25:09;;;;;;;;;84.75;61.00;;;;;-8.37;81.68;101748.38;5099652;28;8940;-70
2022/01/20 03:27:42;;;;;;;;;85.25;65.00;;;;;-8.37;81.38;101740.34;5115726;28;8833;-70
2022/01/20 03:30:38;;;;;;;;;80.25;64.50;;;;;-8.40;81.43;101732.66;5132509;27;8827;-70
2022/01/20 03:33:33;;;;;;;;;65.25;56.50;;;;;-8.43;81.52;101733.88;5133525;27;8838;-70
2022/01/20 03:36:29;;;;;;;;;93.25;75.00;;;;;-8.49;81.30;101737.28;5132654;27;8839;-70
2022/01/20 03:39:24;;;;;;;;;83.00;67.00;;;;;-8.50;81.63;101734.78;5132899;27;9568;-70
2022/01/20 03:42:20;;;;;;;;;96.75;75.00;;;;;-8.60;81.29;101734.16;5132640;27;8977;-69
2022/01/20 03:45:16;;;;;;;;;103.00;75.75;;;;;-8.55;81.28;101731.78;5131989;27;8815;-69
2022/01/20 03:47:44;;;;;;;;;91.75;71.50;;;;;-8.62;81.46;101728.16;5103913;28;8841;-69
2022/01/20 03:53:31;;;;;;;;;103.25;78.00;;;;;-8.45;81.17;101729.69;5112463;28;8845;-70
2022/01/20 03:56:26;;;;;;;;;91.25;72.00;;;;;-8.37;80.51;101739.50;5114797;27;8855;-70
2022/01/20 03:59:22;;;;;;;;;94.00;73.25;;;;;-8.47;80.33;101737.09;5133038;27;9557;-70
2022/01/20 04:02:18;;;;;;;;;77.25;61.25;;;;;-8.58;80.80;101734.84;5131506;27;8839;-69
2022/01/20 04:04:45;;;;;;;;;82.50;64.50;;;;;-8.62;81.06;101722.78;5134065;27;8843;-70
2022/01/20 04:07:41;;;;;;;;;77.00;59.50;;;;;-8.69;81.20;101720.81;5118056;28;8861;-70
2022/01/20 04:10:36;;;;;;;;;73.25;58.75;;;;;-8.65;80.67;101732.03;5115603;27;8813;-69
2022/01/20 04:13:19;;;;;;;;;79.25;59.00;;;;;-8.77;80.95;101728.91;5132189;27;8952;-70
2022/01/20 04:16:21;;;;;;;;;73.25;57.75;;;;;-8.66;81.35;101729.50;5127909;27;8827;-70
2022/01/20 04:19:17;;;;;;;;;60.75;52.50;;;;;-8.78;80.80;101724.56;5111875;28;8909;-69
2022/01/20 04:21:45;;;;;;;;;66.00;57.50;;;;;-8.75;80.80;101726.88;5130331;27;8839;-70
2022/01/20 04:24:40;;;;;;;;;77.75;63.25;;;;;-8.84;80.53;101722.59;5132865;27;8835;-70
2022/01/20 04:27:36;;;;;;;;;75.25;62.75;;;;;-8.85;80.05;101726.31;5118184;27;8904;-69
2022/01/20 04:30:33;;;;;;;;;70.75;55.75;;;;;-8.86;80.58;101723.81;5132792;27;8831;-69
2022/01/20 04:33:00;;;;;;;;;79.75;64.25;;;;;-8.92;80.58;101728.03;5131008;27;8889;-69
2022/01/20 04:35:56;;;;;;;;;71.50;57.25;;;;;-8.83;81.57;101726.13;5102842;27;8855;-70
2022/01/20 04:38:51;;;;;;;;;84.00;65.00;;;;;-8.70;81.43;101731.72;5133072;27;8835;-70
2022/01/20 04:41:48;;;;;;;;;76.50;61.50;;;;;-8.78;80.78;101732.63;5133455;27;8847;-70
2022/01/20 04:44:51;;;;;;;;;75.50;61.25;;;;;-8.84;80.00;101733.31;5134781;27;8903;-70
2022/01/20 04:47:56;;;;;;;;;100.75;76.00;;;;;-8.88;80.09;101731.19;5135566;27;8849;-70
2022/01/20 04:59:39;;;;;;;;;85.50;66.75;;;;;-8.85;79.36;101717.41;5115431;28;8821;-71
2022/01/20 05:02:28;;;;;;;;;85.25;65.00;;;;;-8.92;79.17;101737.91;5116589;28;8845;-70
2022/01/20 05:05:24;;;;;;;;;77.50;62.75;;;;;-8.95;79.83;101731.06;5103486;27;8819;-70
2022/01/20 05:07:52;;;;;;;;;82.50;60.75;;;;;-9.05;79.79;101727.75;5118817;27;9584;-71
2022/01/20 05:10:48;;;;;;;;;94.50;69.75;;;;;-8.75;79.30;101724.19;5134938;27;8867;-70
2022/01/20 05:13:44;;;;;;;;;84.00;68.50;;;;;-8.87;80.18;101722.97;5120244;27;8817;-70
2022/01/20 05:16:26;;;;;;;;;80.00;61.00;;;;;-8.66;80.12;101732.19;5110941;28;8837;-70
2022/01/20 05:18:55;;;;;;;;;101.75;77.00;;;;;-8.65;79.38;101736.56;5132453;27;8851;-70
2022/01/20 05:21:31;;;;;;;;;106.75;82.00;;;;;-8.57;79.45;101739.19;5132380;27;8868;-69
2022/01/20 05:23:58;;;;;;;;;102.75;80.50;;;;;-8.57;79.78;101736.50;5116071;28;8833;-69
2022/01/20 05:26:57;;;;;;;;;89.75;68.50;;;;;-8.54;80.04;101738.81;5101440;27;8865;-69
2022/01/20 05:29:53;;;;;;;;;78.50;61.50;;;;;-8.71;79.77;101738.94;5101206;28;8813;-70
2022/01/20 05:32:34;;;;;;;;;125.00;104.00;;;;;-8.73;80.30;101745.50;5114922;28;9029;-70
2022/01/20 05:35:30;;;;;;;;;112.25;86.75;;;;;-8.57;80.09;101740.03;5113781;28;8849;-70
2022/01/20 05:37:58;;;;;;;;;108.25;87.50;;;;;-8.49;80.64;101739.94;5119772;27;8833;-73
2022/01/20 05:40:54;;;;;;;;;105.25;78.75;;;;;-8.39;80.29;101744.22;5114976;27;9749;-73
2022/01/20 05:43:49;;;;;;;;;97.00;77.00;;;;;-8.40;80.48;101746.09;5114713;28;8838;-73
2022/01/20 05:46:48;;;;;;;;;95.75;71.00;;;;;-8.21;81.40;101758.13;5102052;27;8833;-73
2022/01/20 05:49:44;;;;;;;;;111.50;85.50;;;;;-8.16;81.06;101753.03;5114495;28;8845;-74
2022/01/20 05:52:41;;;;;;;;;98.50;73.25;;;;;-8.12;80.80;101744.47;5100871;28;8830;-72
2022/01/20 05:55:38;;;;;;;;;107.75;84.00;;;;;-7.99;80.96;101749.19;5113833;28;8813;-72
2022/01/20 05:58:07;;;;;;;;;103.75;77.50;;;;;-7.95;80.57;101746.97;5134889;27;8831;-69
2022/01/20 06:00:37;;;;;;;;;112.00;93.75;;;;;-8.01;81.78;101739.66;5135833;27;8819;-70
2022/01/20 06:03:39;;;;;;;;;107.25;84.25;;;;;-8.01;81.75;101742.34;5104734;28;8834;-70
2022/01/20 06:06:27;;;;;;;;;121.75;102.00;;;;;-7.71;81.18;101746.72;5115220;28;8828;-70
2022/01/20 06:09:22;;;;;;;;;136.50;99.00;;;;;-7.97;81.09;101747.19;5125718;27;8819;-71
2022/01/20 06:12:05;;;;;;;;;120.25;97.75;;;;;-7.60;80.88;101753.47;5133385;27;8839;-70
2022/01/20 06:14:32;;;;;;;;;116.00;84.75;;;;;-7.48;80.77;101748.47;5113733;28;8841;-71
2022/01/20 06:17:00;;;;;;;;;146.75;128.25;;;;;-7.57;80.64;101750.44;5097804;28;8845;-71
2022/01/20 06:19:56;;;;;;;;;134.50;115.50;;;;;-7.56;80.95;101742.19;5114672;27;8870;-71
2022/01/20 06:22:23;;;;;;;;;159.00;130.00;;;;;-7.56;80.86;101733.28;5126316;27;8826;-71
2022/01/20 06:24:54;;;;;;;;;148.00;121.00;;;;;-7.49;81.13;101736.91;5114874;28;8834;-71
2022/01/20 06:27:40;;;;;;;;;142.75;121.25;;;;;-7.40;80.58;101732.25;5132892;27;9632;-70
2022/01/20 06:30:09;;;;;;;;;135.00;108.50;;;;;-7.18;79.70;101742.06;5135045;27;8901;-70
2022/01/20 06:32:37;;;;;;;;;128.00;98.25;;;;;-7.20;79.32;101738.72;5135091;27;8839;-71
2022/01/20 06:35:06;;;;;;;;;140.50;117.25;;;;;-7.23;81.89;101735.56;5135146;27;8987;-71
2022/01/20 06:37:34;;;;;;;;;144.25;113.00;;;;;-7.20;82.31;101733.34;5135128;27;8835;-71
2022/01/20 06:40:06;;;;;;;;;121.50;102.50;;;;;-7.12;82.27;101729.72;5114858;27;8855;-71
2022/01/20 06:42:34;;;;;;;;;148.00;123.25;;;;;-6.89;81.85;101729.56;5096540;28;9609;-71
2022/01/20 06:45:07;;;;;;;;;206.75;171.50;;;;;-6.85;81.50;101733.53;5114348;28;8842;-71
2022/01/20 06:48:03;;;;;;;;;136.00;109.50;;;;;-6.69;82.33;101729.75;5113367;28;8826;-71
2022/01/20 06:50:32;;;;;;;;;130.00;105.75;;;;;-6.64;81.57;101727.31;5126482;27;8842;-72
2022/01/20 06:53:27;;;;;;;;;193.00;157.25;;;;;-6.65;80.88;101720.28;5112772;28;8869;-72
2022/01/20 06:56:23;;;;;;;;;174.50;134.50;;;;;-6.47;80.59;101707.19;5113076;28;8968;-71
2022/01/20 06:59:18;;;;;;;;;144.00;128.25;;;;;-6.36;80.48;101711.19;5099360;28;8860;-71
2022/01/20 07:02:14;;;;;;;;;146.75;118.75;;;;;-6.23;81.17;101703.25;5099510;28;8841;-72
2022/01/20 07:05:12;;;;;;;;;163.00;137.25;;;;;-6.17;81.06;101689.00;5099508;28;8879;-72
2022/01/20 07:07:40;;;;;;;;;118.00;99.75;;;;;-6.23;81.08;101689.78;5122702;27;8820;-72
2022/01/20 07:10:10;;;;;;;;;142.50;114.50;;;;;-6.20;81.17;101684.03;5116198;27;8935;-73
2022/01/20 07:13:06;;;;;;;;;118.25;85.00;;;;;-6.00;81.72;101689.53;5133184;27;8903;-73
2022/01/20 07:15:48;;;;;;;;;120.25;99.25;;;;;-5.84;81.88;101686.47;5120440;27;8959;-73
2022/01/20 07:18:43;;;;;;;;;134.75;119.75;;;;;-5.63;81.20;101683.69;5112719;28;8853;-73
2022/01/20 07:21:12;;;;;;;;;125.25;114.50;;;;;-5.60;81.81;101679.75;5113567;28;9709;-74
2022/01/20 07:24:07;;;;;;;;;120.75;97.00;;;;;-5.37;82.19;101683.00;5112089;28;9026;-73
2022/01/20 07:27:04;;;;;;;;;141.00;110.00;;;;;-5.14;82.65;101674.56;5099469;27;8915;-72
2022/01/20 07:29:31;;;;;;;;;123.75;99.50;;;;;-5.08;82.36;101671.03;5130152;27;8865;-73
2022/01/20 07:32:00;;;;;;;;;134.75;103.75;;;;;-4.92;82.40;101656.34;5118526;27;8837;-73
2022/01/20 07:34:33;;;;;;;;;104.00;76.25;;;;;-4.59;81.65;101663.66;5123324;28;8900;-72
2022/01/20 07:37:29;;;;;;;;;92.00;71.00;;;;;-4.33;81.37;101658.25;5117093;27;8859;-71
2022/01/20 07:39:57;;;;;;;;;105.00;75.50;;;;;-4.17;80.37;101650.75;5107099;28;9669;-73
2022/01/20 07:42:25;;;;;;;;;112.00;93.00;;;;;-4.10;81.40;101646.19;5123311;27;8895;-71
2022/01/20 07:44:55;;;;;;;;;116.50;100.25;;;;;-4.06;80.35;101664.47;5116447;28;8821;-71
2022/01/20 07:47:22;;;;;;;;;114.00;84.75;;;;;-3.88;79.38;101662.97;5114738;28;8925;-71
2022/01/20 07:49:55;;;;;;;;;113.50;87.50;;;;;-3.69;79.38;101654.78;5114727;28;8940;-72
2022/01/20 07:52:51;;;;;;;;;93.25;73.00;;;;;-3.27;79.47;101659.84;5113326;28;8845;-72
2022/01/20 07:55:19;;;;;;;;;79.25;63.50;;;;;-3.06;80.05;101659.53;5095378;28;8864;-72
2022/01/20 07:57:47;;;;;;;;;83.00;64.00;;;;;-2.71;78.95;101661.78;5113628;28;8873;-71
2022/01/20 08:00:16;;;;;;;;;84.50;63.00;;;;;-2.43;78.44;101664.09;5095447;28;8846;-71
2022/01/20 08:02:45;;;;;;;;;74.00;61.50;;;;;-2.15;78.72;101666.34;5113463;28;9627;-71
2022/01/20 08:05:15;;;;;;;;;74.00;60.50;;;;;-1.92;77.96;101673.81;5095646;28;8955;-71
2022/01/20 08:07:48;;;;;;;;;52.67;48.00;;;;;-2.02;78.27;101683.31;5102359;28;9600;-70
2022/01/20 08:10:17;;;;;;;;;60.67;48.00;;;;;-1.95;78.83;101683.25;5092686;28;9685;-71
2022/01/20 08:12:45;;;;;;;;;30.00;27.67;;;;;-2.02;79.44;101677.06;5075233;28;8851;-71
2022/01/20 08:15:15;;;;;;;;;39.67;37.67;;;;;-1.87;78.56;101680.25;5075096;28;9011;-71
2022/01/20 08:17:44;;;;;;;;;27.00;24.00;;;;;-2.10;77.30;101682.78;5093379;28;9629;-70
2022/01/20 08:20:16;;;;;;;;;42.33;40.33;;;;;-1.94;78.21;101692.22;5096377;28;8831;-71
2022/01/20 08:22:44;;;;;;;;;40.33;35.33;;;;;-1.94;78.95;101694.91;5079139;28;8839;-71
2022/01/20 08:25:16;;;;;;;;;35.00;34.67;;;;;-1.88;78.77;101694.03;5095488;28;8870;-71
2022/01/20 08:27:47;;;;;;;;;45.67;36.67;;;;;-2.07;80.32;101685.03;5097017;28;8844;-71
2022/01/20 08:30:20;;;;;;;;;41.33;34.67;;;;;-2.16;80.05;101689.06;5062543;28;8855;-71
2022/01/20 08:32:50;;;;;;;;;40.67;39.33;;;;;-2.03;81.07;101686.25;5096764;28;9632;-71
2022/01/20 08:35:21;;;;;;;;;42.33;38.33;;;;;-2.09;81.15;101679.81;5078989;28;8856;-71
2022/01/20 08:37:49;;;;;;;;;37.00;33.00;;;;;-1.86;81.10;101679.19;5096128;28;8883;-70
2022/01/20 08:40:22;;;;;;;;;36.00;36.00;;;;;-1.94;80.64;101671.34;5078514;28;8843;-71
2022/01/20 08:42:51;;;;;;;;;36.67;35.67;;;;;-2.04;80.53;101671.03;5096330;28;9665;-72
2022/01/20 08:45:24;;;;;;;;;38.33;37.00;;;;;-2.14;80.00;101674.25;5096449;28;8848;-72
2022/01/20 08:47:54;;;;;;;;;38.00;36.00;;;;;-2.20;80.46;101666.19;5096386;28;8848;-72
2022/01/20 08:50:27;;;;;;;;;41.00;41.00;;;;;-2.05;80.55;101662.09;5096168;28;8839;-71
2022/01/20 08:52:56;;;;;;;;;32.33;32.33;;;;;-2.19;79.77;101655.13;5096215;28;9585;-71
2022/01/20 08:55:28;;;;;;;;;27.00;25.67;;;;;-2.07;80.30;101663.34;5096100;28;8889;-70
2022/01/20 08:57:57;;;;;;;;;38.33;36.67;;;;;-2.04;79.61;101663.72;5096068;28;8866;-70
2022/01/20 09:00:31;;;;;;;;;27.33;26.33;;;;;-2.10;79.79;101648.34;5095635;28;8836;-71
2022/01/20 09:02:59;;;;;;;;;28.67;25.33;;;;;-2.10;79.53;101658.38;5078328;28;8843;-70
2022/01/20 09:05:27;;;;;;;;;31.33;30.67;;;;;-2.07;79.67;101647.94;5096161;28;8848;-71
2022/01/20 09:07:55;;;;;;;;;36.00;30.00;;;;;-2.22;80.54;101647.44;5089568;28;8825;-71
2022/01/20 09:10:24;;;;;;;;;32.67;30.67;;;;;-2.07;80.34;101650.63;5115992;28;8959;-71
2022/01/20 09:15:40;;;;;;;;;21.00;21.00;;;;;-2.37;80.11;101626.13;5115601;28;8948;-72
2022/01/20 09:18:39;;;;;;;;;29.33;28.67;;;;;-2.37;79.80;101620.69;5115667;28;8980;-71
2022/01/20 09:21:07;;;;;;;;;24.67;24.67;;;;;-2.32;80.34;101620.84;5114415;28;8817;-71
2022/01/20 09:23:34;;;;;;;;;24.33;22.67;;;;;-2.27;80.09;101607.44;5113385;28;9777;-71
2022/01/20 09:26:30;;;;;;;;;19.00;19.00;;;;;-2.28;79.66;101615.81;5114360;28;9586;-71
2022/01/20 09:29:26;;;;;;;;;15.33;15.33;;;;;-2.23;80.03;101605.13;5092579;28;8954;-72
2022/01/20 09:32:24;;;;;;;;;16.00;16.00;;;;;-2.12;79.69;101607.09;5114647;28;8821;-73
2022/01/20 09:35:00;;;;;;;;;21.00;21.00;;;;;-2.13;79.39;101599.19;5114908;28;8872;-71
2022/01/20 09:37:31;;;;;;;;;14.67;14.67;;;;;-2.14;80.22;101606.50;5115225;28;8992;-71
2022/01/20 09:40:29;;;;;;;;;7.67;7.67;;;;;-2.13;79.83;101608.16;5081398;28;8839;-71
2022/01/20 09:43:25;;;;;;;;;12.33;12.33;;;;;-2.35;80.01;101596.06;5081386;28;8842;-71
2022/01/20 09:46:11;;;;;;;;;24.33;21.67;;;;;-2.17;80.64;101592.56;5094986;28;8832;-72
2022/01/20 09:49:09;;;;;;;;;24.33;24.33;;;;;-2.05;79.41;101596.19;5094006;28;8851;-71
2022/01/20 09:52:04;;;;;;;;;16.67;15.67;;;;;-1.94;79.84;101586.47;5097960;28;9597;-72
2022/01/20 09:54:33;;;;;;;;;15.67;15.67;;;;;-1.88;79.70;101585.56;5093746;28;8927;-73
2022/01/20 09:57:29;;;;;;;;;23.33;18.33;;;;;-1.76;79.50;101573.75;5092304;28;8849;-71
2022/01/20 09:59:57;;;;;;;;;10.00;10.00;;;;;-1.93;80.47;101567.25;5115269;28;8837;-72
2022/01/20 10:03:00;;;;;;;;;14.33;14.33;;;;;-1.99;80.63;101571.72;5110944;28;8841;-71
2022/01/20 10:05:35;;;;;;;;;16.00;16.00;;;;;-1.72;80.68;101558.66;5114171;28;8837;-71
2022/01/20 10:08:25;;;;;;;;;13.67;13.67;;;;;-1.91;80.07;101554.31;5130030;27;8846;-72
2022/01/20 10:10:56;;;;;;;;;17.67;17.67;;;;;-1.52;79.89;101550.28;5117233;27;8926;-72
2022/01/20 10:13:27;;;;;;;;;19.67;16.00;;;;;-1.26;80.18;101540.91;5135344;27;8839;-72
2022/01/20 10:16:04;;;;;;;;;13.00;13.00;;;;;-1.45;79.43;101534.72;5117814;27;8846;-72
2022/01/20 10:18:53;;;;;;;;;8.33;8.33;;;;;-1.22;79.05;101535.88;5135348;27;8877;-72
2022/01/20 10:21:36;;;;;;;;;13.00;13.00;;;;;-1.10;78.61;101525.84;5135345;27;8911;-72
2022/01/20 10:24:33;;;;;;;;;12.67;12.67;;;;;-0.94;77.98;101525.16;5134575;27;8861;-72
2022/01/20 10:27:34;;;;;;;;;12.67;12.00;;;;;-0.89;77.94;101519.88;5134259;27;9637;-72
2022/01/20 10:30:33;;;;;;;;;13.00;13.00;;;;;-0.97;78.16;101516.66;5133771;27;8842;-73
2022/01/20 10:33:01;;;;;;;;;14.33;14.33;;;;;-0.95;76.63;101517.25;5135181;27;8835;-73
2022/01/20 10:35:36;;;;;;;;;17.33;15.33;;;;;-0.88;76.94;101507.94;5135285;27;8843;-73
2022/01/20 10:38:16;;;;;;;;;17.33;15.33;;;;;-0.79;76.69;101513.84;5135424;27;8901;-73
2022/01/20 10:40:54;;;;;;;;;24.00;18.00;;;;;-0.71;76.46;101509.94;5113553;27;8839;-72
2022/01/20 10:43:31;;;;;;;;;15.00;15.00;;;;;-0.62;75.87;101501.19;5109665;27;8832;-73
2022/01/20 10:46:08;;;;;;;;;9.33;9.33;;;;;-0.59;76.11;101508.06;5113924;27;8847;-73
2022/01/20 10:49:03;;;;;;;;;3.67;2.33;;;;;-0.78;75.84;101498.38;5129086;27;8829;-73
2022/01/20 10:52:07;;;;;;;;;12.00;12.00;;;;;-0.71;75.22;101493.66;5113483;28;8853;-73
2022/01/20 10:55:06;;;;;;;;;14.33;12.67;;;;;-0.69;74.96;101497.81;5113114;28;8860;-73
2022/01/20 10:57:35;;;;;;;;;29.33;20.67;;;;;-0.58;75.36;101493.41;5114231;28;8837;-73
2022/01/20 11:00:15;;;;;;;;;27.67;27.67;;;;;-0.52;76.08;101486.22;5114415;28;9605;-72
2022/01/20 11:02:47;;;;;;;;;13.67;13.67;;;;;-0.69;74.76;101481.50;5114025;28;8837;-73
2022/01/20 11:05:16;;;;;;;;;15.00;15.00;;;;;-0.44;74.93;101473.09;5114022;28;9694;-73
2022/01/20 11:07:45;;;;;;;;;14.33;14.33;;;;;-0.15;73.67;101470.44;5113625;28;8995;-73
2022/01/20 11:10:17;;;;;;;;;15.00;15.00;;;;;0.03;72.70;101455.81;5095529;28;8868;-74
2022/01/20 11:12:47;;;;;;;;;15.33;15.00;;;;;0.37;72.04;101449.38;5095799;28;8853;-73
2022/01/20 11:15:17;;;;;;;;;12.33;12.33;;;;;0.74;70.95;101446.22;5113850;28;8926;-72
2022/01/20 11:17:51;;;;;;;;;16.67;16.00;;;;;0.87;70.37;101445.09;5096211;28;8837;-72
2022/01/20 11:20:23;;;;;;;;;13.00;13.00;;;;;0.83;69.17;101439.28;5113406;28;11518;-73
2022/01/20 11:22:57;;;;;;;;;10.00;10.00;;;;;1.13;67.44;101443.56;5095676;28;11531;-73
2022/01/20 11:25:29;;;;;;;;;13.67;13.00;;;;;0.87;67.88;101445.91;5095907;28;11511;-73
2022/01/20 11:28:08;;;;;;;;;16.00;16.00;;;;;1.02;66.88;101442.59;5095593;28;11479;-73
2022/01/20 11:30:42;;;;;;;;;8.00;6.33;;;;;1.06;66.33;101439.09;5113435;28;11560;-73
2022/01/20 11:33:18;;;;;;;;;14.00;14.00;;;;;1.45;66.46;101443.75;5113476;28;11486;-72
2022/01/20 11:35:56;;;;;;;;;13.75;13.75;;;;;1.70;64.99;101438.66;5095780;28;11610;-73
2022/01/20 11:38:36;;;;;;;;;17.25;15.50;;;;;1.75;64.70;101444.16;5095908;28;11487;-73
2022/01/20 11:41:05;;;;;;;;;11.00;10.25;;;;;1.94;64.70;101447.41;5113422;28;11512;-73
2022/01/20 11:43:38;;;;;;;;;16.75;16.75;;;;;1.79;66.18;101436.31;5113487;28;11506;-73
2022/01/20 11:46:17;;;;;;;;;15.75;15.75;;;;;1.60;66.79;101433.88;5095520;28;11499;-73
2022/01/20 11:48:54;;;;;;;;;1.25;1.25;;;;;1.73;67.12;101424.50;5078685;28;11612;-72
2022/01/20 11:51:41;;;;;;;;;22.00;18.25;;;;;1.60;65.04;101424.88;5110346;27;11457;-73
2022/01/20 11:54:43;;;;;;;;;14.25;12.25;;;;;1.96;64.88;101409.75;5132555;27;11501;-72
2022/01/20 11:57:35;;;;;;;;;11.25;11.25;;;;;1.88;63.86;101400.13;5117392;28;11546;-73
2022/01/20 12:00:22;;;;;;;;;24.75;22.75;;;;;2.16;63.84;101398.25;5123011;27;11489;-73
2022/01/20 12:03:17;;;;;;;;;17.00;17.00;;;;;2.42;63.29;101397.41;5123310;27;12339;-73
2022/01/20 12:05:57;;;;;;;;;14.50;14.50;;;;;2.17;64.31;101394.44;5137871;27;11641;-73
2022/01/20 12:08:59;;;;;;;;;16.50;16.50;;;;;2.36;63.41;101397.63;5137582;27;11620;-73
2022/01/20 12:11:54;;;;;;;;;17.50;17.25;;;;;2.18;63.96;101382.44;5134589;27;11566;-72
2022/01/20 12:14:37;;;;;;;;;17.75;17.75;;;;;2.22;63.57;101389.00;5117043;28;11693;-73
2022/01/20 12:17:33;;;;;;;;;20.25;16.75;;;;;2.05;63.15;101391.84;5118268;27;11558;-72
2022/01/20 12:20:00;;;;;;;;;18.00;18.00;;;;;1.89;63.13;101387.31;5117686;27;11611;-72
2022/01/20 12:22:28;;;;;;;;;11.25;11.25;;;;;1.85;64.90;101378.00;5137445;27;11564;-72
2022/01/20 12:24:58;;;;;;;;;18.50;17.50;;;;;2.05;63.61;101374.66;5135817;27;11472;-73
2022/01/20 12:27:26;;;;;;;;;16.75;16.75;;;;;2.00;62.78;101380.09;5116908;28;11583;-73
2022/01/20 12:29:54;;;;;;;;;16.75;14.00;;;;;1.87;63.22;101375.84;5102466;27;11590;-72
2022/01/20 12:33:21;;;;;;;;;14.00;14.00;;;;;1.76;64.47;101368.59;5116669;27;11510;-72
2022/01/20 12:36:17;;;;;;;;;19.50;19.50;;;;;1.73;64.18;101356.31;5103148;28;11567;-73
2022/01/20 12:39:22;;;;;;;;;19.00;19.00;;;;;1.62;64.73;101354.56;5115332;28;12292;-73
2022/01/20 12:41:54;;;;;;;;;15.50;14.00;;;;;1.78;63.61;101347.38;5098842;28;11503;-72
2022/01/20 12:44:24;;;;;;;;;13.00;13.00;;;;;1.73;64.26;101345.41;5098308;28;11484;-72
2022/01/20 12:46:52;;;;;;;;;16.75;12.75;;;;;1.60;65.78;101340.34;5098572;28;11538;-72
2022/01/20 12:49:19;;;;;;;;;14.25;12.00;;;;;1.87;64.52;101346.66;5098452;28;11492;-72
2022/01/20 12:51:53;;;;;;;;;12.25;12.00;;;;;1.79;64.96;101344.41;5116340;28;11567;-72
2022/01/20 12:54:33;;;;;;;;;19.67;19.67;;;;;1.61;64.52;101339.25;5098736;28;11498;-72
2022/01/20 12:57:05;;;;;;;;;23.25;21.00;;;;;1.58;65.44;101335.16;5081674;28;12390;-72
2022/01/20 12:59:39;;;;;;;;;30.00;25.75;;;;;1.52;65.45;101328.00;5116136;28;11518;-71
2022/01/20 13:02:19;;;;;;;;;35.00;25.67;;;;;1.32;65.90;101333.22;5132278;27;11508;-72
2022/01/20 13:05:16;;;;;;;;;27.00;26.00;;;;;1.59;66.08;101330.53;5114463;28;11634;-72
2022/01/20 13:08:00;;;;;;;;;28.00;28.00;;;;;1.34;66.78;101323.69;5124892;27;11539;-72
2022/01/20 13:10:33;;;;;;;;;26.75;24.25;;;;;1.50;66.07;101326.59;5109615;28;11536;-71
2022/01/20 13:13:05;;;;;;;;;19.33;19.33;;;;;1.42;66.70;101327.88;5116214;28;11498;-71
2022/01/20 13:16:15;;;;;;;;;24.50;24.50;;;;;1.40;65.25;101324.59;5103510;27;11595;-72
2022/01/20 13:18:55;;;;;;;;;28.67;28.00;;;;;1.33;66.07;101313.88;5117301;27;11501;-72
2022/01/20 13:21:46;;;;;;;;;31.67;31.33;;;;;1.33;66.41;101330.22;5132487;27;11503;-72
2022/01/20 13:24:25;;;;;;;;;26.00;25.33;;;;;1.20;67.47;101314.25;5122115;27;11510;-71
2022/01/20 13:27:20;;;;;;;;;31.00;29.00;;;;;1.42;65.76;101310.69;5114484;28;8932;-71
2022/01/20 13:30:47;;;;;;;;;30.33;29.33;;;;;1.08;67.19;101310.84;5119363;27;8907;-72
2022/01/20 13:33:19;;;;;;;;;42.00;39.33;;;;;0.95;68.48;101290.22;5122840;27;8960;-72
2022/01/20 13:35:59;;;;;;;;;27.00;27.00;;;;;1.13;67.99;101288.28;5134435;27;9564;-71
2022/01/20 13:38:48;;;;;;;;;33.67;33.00;;;;;1.19;67.77;101274.47;5117344;27;11525;-72